Terminal Aerodrome Forecast
Issued by NWS Cleveland, OH

Home | Current Version | Previous Version | Text Only | Print | Product List | Glossary On
Versions: 1 2 3 4 5 6 7 8 9 10 11 12 13 14 15 16 17 18 19 20 21 22 23 24 25 26 27
000
FTUS41 KCLE 302055 AAC
TAFCLE
TAF AMD
KCLE 302055Z 3021/3124 24010KT P6SM SCT050
     FM310000 23003KT P6SM SKC
      TEMPO 3110/3112 4SM BR
     FM311400 23005KT P6SM SCT025
     FM311700 23007KT P6SM BKN050=

USA.gov is the U.S. government's official web portal to all federal, state and local government web resources and services.